sensor_id;sensor_type;location;lat;lon;timestamp;temperature;humidity
4376;DHT22;2202;50.866;12.750;2022-07-23T00:00:11;17.80;84.00
4376;DHT22;2202;50.866;12.750;2022-07-23T00:02:38;17.80;84.20
4376;DHT22;2202;50.866;12.750;2022-07-23T00:05:05;17.80;83.60
4376;DHT22;2202;50.866;12.750;2022-07-23T00:07:32;17.80;83.80
4376;DHT22;2202;50.866;12.750;2022-07-23T00:09:59;17.70;83.80
4376;DHT22;2202;50.866;12.750;2022-07-23T00:12:27;17.70;84.20
4376;DHT22;2202;50.866;12.750;2022-07-23T00:14:54;17.70;84.80
4376;DHT22;2202;50.866;12.750;2022-07-23T00:17:21;17.60;85.00
4376;DHT22;2202;50.866;12.750;2022-07-23T00:19:48;17.60;85.00
4376;DHT22;2202;50.866;12.750;2022-07-23T00:22:15;17.60;85.20
4376;DHT22;2202;50.866;12.750;2022-07-23T00:24:42;17.50;85.20
4376;DHT22;2202;50.866;12.750;2022-07-23T00:27:09;17.50;85.60
4376;DHT22;2202;50.866;12.750;2022-07-23T00:29:37;17.50;85.00
4376;DHT22;2202;50.866;12.750;2022-07-23T00:32:04;17.50;85.40
4376;DHT22;2202;50.866;12.750;2022-07-23T00:34:31;17.50;86.00
4376;DHT22;2202;50.866;12.750;2022-07-23T00:36:58;17.40;87.00
4376;DHT22;2202;50.866;12.750;2022-07-23T00:39:25;17.40;86.60
4376;DHT22;2202;50.866;12.750;2022-07-23T00:41:52;17.40;87.00
4376;DHT22;2202;50.866;12.750;2022-07-23T00:44:20;17.40;87.60
4376;DHT22;2202;50.866;12.750;2022-07-23T00:46:50;17.40;87.80
4376;DHT22;2202;50.866;12.750;2022-07-23T00:49:19;17.40;88.40
4376;DHT22;2202;50.866;12.750;2022-07-23T00:51:47;17.40;88.00
4376;DHT22;2202;50.866;12.750;2022-07-23T00:54:14;17.40;87.80
4376;DHT22;2202;50.866;12.750;2022-07-23T00:56:41;17.50;87.80
4376;DHT22;2202;50.866;12.750;2022-07-23T00:59:09;17.50;87.80
4376;DHT22;2202;50.866;12.750;2022-07-23T01:01:37;17.50;87.80
4376;DHT22;2202;50.866;12.750;2022-07-23T01:04:05;17.60;87.80
4376;DHT22;2202;50.866;12.750;2022-07-23T01:06:35;17.50;87.80
4376;DHT22;2202;50.866;12.750;2022-07-23T01:09:03;17.50;87.80
4376;DHT22;2202;50.866;12.750;2022-07-23T01:11:32;17.50;88.00
4376;DHT22;2202;50.866;12.750;2022-07-23T01:13:59;17.50;88.40
4376;DHT22;2202;50.866;12.750;2022-07-23T01:16:33;17.60;88.40
4376;DHT22;2202;50.866;12.750;2022-07-23T01:19:00;17.70;87.80
4376;DHT22;2202;50.866;12.750;2022-07-23T01:21:28;17.60;88.20
4376;DHT22;2202;50.866;12.750;2022-07-23T01:23:57;17.70;87.80
4376;DHT22;2202;50.866;12.750;2022-07-23T01:26:24;17.70;87.80
4376;DHT22;2202;50.866;12.750;2022-07-23T01:28:51;17.70;87.80
4376;DHT22;2202;50.866;12.750;2022-07-23T01:31:18;17.70;87.20
4376;DHT22;2202;50.866;12.750;2022-07-23T01:33:45;17.80;87.40
4376;DHT22;2202;50.866;12.750;2022-07-23T01:36:12;17.70;87.60
4376;DHT22;2202;50.866;12.750;2022-07-23T01:38:39;17.70;87.80
4376;DHT22;2202;50.866;12.750;2022-07-23T01:41:07;17.70;87.80
4376;DHT22;2202;50.866;12.750;2022-07-23T01:43:34;17.70;87.60
4376;DHT22;2202;50.866;12.750;2022-07-23T01:46:01;17.80;87.80
4376;DHT22;2202;50.866;12.750;2022-07-23T01:48:28;17.80;87.60
4376;DHT22;2202;50.866;12.750;2022-07-23T01:50:55;17.70;87.60
4376;DHT22;2202;50.866;12.750;2022-07-23T01:53:21;17.70;87.80
4376;DHT22;2202;50.866;12.750;2022-07-23T01:55:48;17.70;87.60
4376;DHT22;2202;50.866;12.750;2022-07-23T01:58:16;17.70;87.60
4376;DHT22;2202;50.866;12.750;2022-07-23T02:00:43;17.70;87.60
4376;DHT22;2202;50.866;12.750;2022-07-23T02:03:10;17.80;87.40
4376;DHT22;2202;50.866;12.750;2022-07-23T02:05:37;17.80;87.40
4376;DHT22;2202;50.866;12.750;2022-07-23T02:08:04;17.70;87.60
4376;DHT22;2202;50.866;12.750;2022-07-23T02:10:31;17.70;87.60
4376;DHT22;2202;50.866;12.750;2022-07-23T02:12:58;17.80;87.40
4376;DHT22;2202;50.866;12.750;2022-07-23T02:15:26;17.70;87.60
4376;DHT22;2202;50.866;12.750;2022-07-23T02:17:54;17.70;87.60
4376;DHT22;2202;50.866;12.750;2022-07-23T02:20:21;17.70;87.60
4376;DHT22;2202;50.866;12.750;2022-07-23T02:22:48;17.70;87.80
4376;DHT22;2202;50.866;12.750;2022-07-23T02:25:15;17.70;87.40
4376;DHT22;2202;50.866;12.750;2022-07-23T02:27:42;17.70;87.20
4376;DHT22;2202;50.866;12.750;2022-07-23T02:30:10;17.70;87.40
4376;DHT22;2202;50.866;12.750;2022-07-23T02:32:39;17.60;87.60
4376;DHT22;2202;50.866;12.750;2022-07-23T02:35:07;17.70;87.80
4376;DHT22;2202;50.866;12.750;2022-07-23T02:37:34;17.70;87.80
4376;DHT22;2202;50.866;12.750;2022-07-23T02:40:00;17.70;87.80
4376;DHT22;2202;50.866;12.750;2022-07-23T02:42:27;17.60;88.40
4376;DHT22;2202;50.866;12.750;2022-07-23T02:44:54;17.60;88.40
4376;DHT22;2202;50.866;12.750;2022-07-23T02:47:21;17.60;88.20
4376;DHT22;2202;50.866;12.750;2022-07-23T02:49:49;17.60;88.00
4376;DHT22;2202;50.866;12.750;2022-07-23T02:52:16;17.60;88.20
4376;DHT22;2202;50.866;12.750;2022-07-23T02:54:43;17.60;88.00
4376;DHT22;2202;50.866;12.750;2022-07-23T02:57:10;17.60;88.40
4376;DHT22;2202;50.866;12.750;2022-07-23T02:59:37;17.50;88.60
4376;DHT22;2202;50.866;12.750;2022-07-23T03:02:03;17.50;88.80
4376;DHT22;2202;50.866;12.750;2022-07-23T03:04:30;17.50;88.80
4376;DHT22;2202;50.866;12.750;2022-07-23T03:06:59;17.50;88.60
4376;DHT22;2202;50.866;12.750;2022-07-23T03:09:25;17.50;89.20
4376;DHT22;2202;50.866;12.750;2022-07-23T03:11:52;17.50;89.80
4376;DHT22;2202;50.866;12.750;2022-07-23T03:14:19;17.50;90.00
4376;DHT22;2202;50.866;12.750;2022-07-23T03:16:46;17.40;89.80
4376;DHT22;2202;50.866;12.750;2022-07-23T03:19:15;17.40;90.30
4376;DHT22;2202;50.866;12.750;2022-07-23T03:21:42;17.40;90.30
4376;DHT22;2202;50.866;12.750;2022-07-23T03:24:10;17.40;90.40
4376;DHT22;2202;50.866;12.750;2022-07-23T03:26:37;17.30;90.70
4376;DHT22;2202;50.866;12.750;2022-07-23T03:29:05;17.20;90.90
4376;DHT22;2202;50.866;12.750;2022-07-23T03:31:32;17.10;91.10
4376;DHT22;2202;50.866;12.750;2022-07-23T03:33:59;17.00;91.50
4376;DHT22;2202;50.866;12.750;2022-07-23T03:36:25;17.00;91.70
4376;DHT22;2202;50.866;12.750;2022-07-23T03:38:52;17.00;91.70
4376;DHT22;2202;50.866;12.750;2022-07-23T03:41:21;17.00;91.80
4376;DHT22;2202;50.866;12.750;2022-07-23T03:43:48;16.90;91.80
4376;DHT22;2202;50.866;12.750;2022-07-23T03:46:15;16.90;92.00
4376;DHT22;2202;50.866;12.750;2022-07-23T03:48:41;16.90;92.00
4376;DHT22;2202;50.866;12.750;2022-07-23T03:51:08;16.90;92.10
4376;DHT22;2202;50.866;12.750;2022-07-23T03:53:35;16.80;92.20
4376;DHT22;2202;50.866;12.750;2022-07-23T03:56:02;16.80;92.20
4376;DHT22;2202;50.866;12.750;2022-07-23T03:58:30;16.80;92.20
4376;DHT22;2202;50.866;12.750;2022-07-23T04:00:57;16.90;92.20
4376;DHT22;2202;50.866;12.750;2022-07-23T04:03:24;16.80;92.20
4376;DHT22;2202;50.866;12.750;2022-07-23T04:05:51;16.80;92.20
4376;DHT22;2202;50.866;12.750;2022-07-23T04:08:18;16.90;92.10
4376;DHT22;2202;50.866;12.750;2022-07-23T04:10:45;16.90;92.00
4376;DHT22;2202;50.866;12.750;2022-07-23T04:13:11;16.90;91.90
4376;DHT22;2202;50.866;12.750;2022-07-23T04:15:40;16.90;92.00
4376;DHT22;2202;50.866;12.750;2022-07-23T04:18:06;16.80;92.10
4376;DHT22;2202;50.866;12.750;2022-07-23T04:20:34;16.90;92.20
4376;DHT22;2202;50.866;12.750;2022-07-23T04:23:00;16.70;92.40
4376;DHT22;2202;50.866;12.750;2022-07-23T04:25:27;16.80;92.70
4376;DHT22;2202;50.866;12.750;2022-07-23T04:27:54;16.80;92.60
4376;DHT22;2202;50.866;12.750;2022-07-23T04:30:21;16.70;92.60
4376;DHT22;2202;50.866;12.750;2022-07-23T04:32:49;16.70;92.80
4376;DHT22;2202;50.866;12.750;2022-07-23T04:35:16;16.80;92.60
4376;DHT22;2202;50.866;12.750;2022-07-23T04:37:43;16.80;92.70
4376;DHT22;2202;50.866;12.750;2022-07-23T04:40:11;16.70;93.00
4376;DHT22;2202;50.866;12.750;2022-07-23T04:42:38;16.60;93.40
4376;DHT22;2202;50.866;12.750;2022-07-23T04:45:06;16.30;94.30
4376;DHT22;2202;50.866;12.750;2022-07-23T04:47:33;16.10;95.50
4376;DHT22;2202;50.866;12.750;2022-07-23T04:50:01;16.00;95.80
4376;DHT22;2202;50.866;12.750;2022-07-23T04:52:28;16.00;95.60
4376;DHT22;2202;50.866;12.750;2022-07-23T04:54:55;16.00;95.70
4376;DHT22;2202;50.866;12.750;2022-07-23T04:57:22;16.00;95.50
4376;DHT22;2202;50.866;12.750;2022-07-23T04:59:49;16.10;95.20
4376;DHT22;2202;50.866;12.750;2022-07-23T05:02:16;16.20;94.80
4376;DHT22;2202;50.866;12.750;2022-07-23T05:04:43;16.10;94.70
4376;DHT22;2202;50.866;12.750;2022-07-23T05:07:11;16.20;94.40
4376;DHT22;2202;50.866;12.750;2022-07-23T05:09:38;16.20;94.00
4376;DHT22;2202;50.866;12.750;2022-07-23T05:12:06;16.20;94.20
4376;DHT22;2202;50.866;12.750;2022-07-23T05:14:33;16.20;94.30
4376;DHT22;2202;50.866;12.750;2022-07-23T05:16:59;16.20;93.60
4376;DHT22;2202;50.866;12.750;2022-07-23T05:19:26;16.20;93.90
4376;DHT22;2202;50.866;12.750;2022-07-23T05:21:53;16.30;93.50
4376;DHT22;2202;50.866;12.750;2022-07-23T05:24:21;16.20;93.30
4376;DHT22;2202;50.866;12.750;2022-07-23T05:26:48;16.20;93.20
4376;DHT22;2202;50.866;12.750;2022-07-23T05:29:15;16.30;93.20
4376;DHT22;2202;50.866;12.750;2022-07-23T05:31:42;16.40;92.60
4376;DHT22;2202;50.866;12.750;2022-07-23T05:34:09;16.40;92.40
4376;DHT22;2202;50.866;12.750;2022-07-23T05:36:36;16.40;92.40
4376;DHT22;2202;50.866;12.750;2022-07-23T05:39:03;16.50;92.10
4376;DHT22;2202;50.866;12.750;2022-07-23T05:41:31;16.60;91.90
4376;DHT22;2202;50.866;12.750;2022-07-23T05:43:58;16.70;91.80
4376;DHT22;2202;50.866;12.750;2022-07-23T05:46:25;16.80;91.30
4376;DHT22;2202;50.866;12.750;2022-07-23T05:48:52;16.90;91.30
4376;DHT22;2202;50.866;12.750;2022-07-23T05:51:20;16.90;91.30
4376;DHT22;2202;50.866;12.750;2022-07-23T05:53:47;17.00;90.80
4376;DHT22;2202;50.866;12.750;2022-07-23T05:56:14;17.20;90.30
4376;DHT22;2202;50.866;12.750;2022-07-23T05:58:43;17.40;90.30
4376;DHT22;2202;50.866;12.750;2022-07-23T06:01:10;17.70;88.60
4376;DHT22;2202;50.866;12.750;2022-07-23T06:03:38;17.70;86.40
4376;DHT22;2202;50.866;12.750;2022-07-23T06:06:05;17.70;85.60
4376;DHT22;2202;50.866;12.750;2022-07-23T06:08:32;17.80;86.40
4376;DHT22;2202;50.866;12.750;2022-07-23T06:10:59;17.80;85.20
4376;DHT22;2202;50.866;12.750;2022-07-23T06:13:26;17.90;85.00
4376;DHT22;2202;50.866;12.750;2022-07-23T06:15:54;18.00;84.60
4376;DHT22;2202;50.866;12.750;2022-07-23T06:18:21;18.10;83.60
4376;DHT22;2202;50.866;12.750;2022-07-23T06:20:48;18.20;83.00
4376;DHT22;2202;50.866;12.750;2022-07-23T06:23:15;18.20;82.40
4376;DHT22;2202;50.866;12.750;2022-07-23T06:25:42;18.20;81.60
4376;DHT22;2202;50.866;12.750;2022-07-23T06:28:09;18.20;81.60
4376;DHT22;2202;50.866;12.750;2022-07-23T06:30:36;18.20;82.40
4376;DHT22;2202;50.866;12.750;2022-07-23T06:33:04;18.20;82.20
4376;DHT22;2202;50.866;12.750;2022-07-23T06:35:31;18.30;82.00
4376;DHT22;2202;50.866;12.750;2022-07-23T06:37:59;18.30;80.80
4376;DHT22;2202;50.866;12.750;2022-07-23T06:40:26;18.40;81.40
4376;DHT22;2202;50.866;12.750;2022-07-23T06:42:53;18.30;81.00
4376;DHT22;2202;50.866;12.750;2022-07-23T06:45:20;18.40;81.60
4376;DHT22;2202;50.866;12.750;2022-07-23T06:47:46;18.50;82.20
4376;DHT22;2202;50.866;12.750;2022-07-23T06:50:15;18.70;81.40
4376;DHT22;2202;50.866;12.750;2022-07-23T06:52:42;18.90;79.20
4376;DHT22;2202;50.866;12.750;2022-07-23T06:55:09;19.10;80.40
4376;DHT22;2202;50.866;12.750;2022-07-23T06:57:36;19.40;78.60
4376;DHT22;2202;50.866;12.750;2022-07-23T07:00:04;19.70;76.60
4376;DHT22;2202;50.866;12.750;2022-07-23T07:02:31;20.00;74.60
4376;DHT22;2202;50.866;12.750;2022-07-23T07:04:58;20.40;73.20
4376;DHT22;2202;50.866;12.750;2022-07-23T07:07:26;20.50;69.80
4376;DHT22;2202;50.866;12.750;2022-07-23T07:09:53;20.40;70.20
4376;DHT22;2202;50.866;12.750;2022-07-23T07:12:20;20.10;69.80
4376;DHT22;2202;50.866;12.750;2022-07-23T07:14:47;19.90;71.20
4376;DHT22;2202;50.866;12.750;2022-07-23T07:17:14;19.80;73.00
4376;DHT22;2202;50.866;12.750;2022-07-23T07:19:41;19.90;72.20
4376;DHT22;2202;50.866;12.750;2022-07-23T07:22:08;19.90;73.60
4376;DHT22;2202;50.866;12.750;2022-07-23T07:24:36;20.10;71.80
4376;DHT22;2202;50.866;12.750;2022-07-23T07:27:03;20.10;70.40
4376;DHT22;2202;50.866;12.750;2022-07-23T07:29:30;20.10;72.00
4376;DHT22;2202;50.866;12.750;2022-07-23T07:31:57;20.40;72.40
4376;DHT22;2202;50.866;12.750;2022-07-23T07:34:24;20.80;71.80
4376;DHT22;2202;50.866;12.750;2022-07-23T07:36:51;21.50;68.00
4376;DHT22;2202;50.866;12.750;2022-07-23T07:39:18;21.90;64.00
4376;DHT22;2202;50.866;12.750;2022-07-23T07:41:46;22.20;63.80
4376;DHT22;2202;50.866;12.750;2022-07-23T07:44:13;22.30;63.20
4376;DHT22;2202;50.866;12.750;2022-07-23T07:46:39;22.40;61.60
4376;DHT22;2202;50.866;12.750;2022-07-23T07:49:06;22.40;61.80
4376;DHT22;2202;50.866;12.750;2022-07-23T07:51:33;22.40;61.00
4376;DHT22;2202;50.866;12.750;2022-07-23T07:54:01;22.50;60.80
4376;DHT22;2202;50.866;12.750;2022-07-23T07:56:28;22.60;61.80
4376;DHT22;2202;50.866;12.750;2022-07-23T07:58:56;22.60;59.80
4376;DHT22;2202;50.866;12.750;2022-07-23T08:01:23;22.50;61.60
4376;DHT22;2202;50.866;12.750;2022-07-23T08:03:50;22.40;62.20
4376;DHT22;2202;50.866;12.750;2022-07-23T08:06:17;22.30;62.60
4376;DHT22;2202;50.866;12.750;2022-07-23T08:08:44;22.40;63.40
4376;DHT22;2202;50.866;12.750;2022-07-23T08:11:11;22.30;62.80
4376;DHT22;2202;50.866;12.750;2022-07-23T08:13:38;22.30;62.60
4376;DHT22;2202;50.866;12.750;2022-07-23T08:16:06;22.20;63.40
4376;DHT22;2202;50.866;12.750;2022-07-23T08:18:33;22.10;64.60
4376;DHT22;2202;50.866;12.750;2022-07-23T08:21:00;22.20;64.80
4376;DHT22;2202;50.866;12.750;2022-07-23T08:23:27;22.30;63.00
4376;DHT22;2202;50.866;12.750;2022-07-23T08:25:54;22.30;62.60
4376;DHT22;2202;50.866;12.750;2022-07-23T08:28:22;22.40;63.80
4376;DHT22;2202;50.866;12.750;2022-07-23T08:30:49;22.50;62.00
4376;DHT22;2202;50.866;12.750;2022-07-23T08:33:18;22.60;60.60
4376;DHT22;2202;50.866;12.750;2022-07-23T08:35:47;22.60;62.20
4376;DHT22;2202;50.866;12.750;2022-07-23T08:38:17;22.50;64.00
4376;DHT22;2202;50.866;12.750;2022-07-23T08:40:45;22.70;63.60
4376;DHT22;2202;50.866;12.750;2022-07-23T08:43:14;22.90;64.60
4376;DHT22;2202;50.866;12.750;2022-07-23T08:45:42;23.30;60.80
4376;DHT22;2202;50.866;12.750;2022-07-23T08:48:12;23.60;62.00
4376;DHT22;2202;50.866;12.750;2022-07-23T08:50:43;24.00;60.10
4376;DHT22;2202;50.866;12.750;2022-07-23T08:53:10;24.30;57.40
4376;DHT22;2202;50.866;12.750;2022-07-23T08:55:37;24.70;58.30
4376;DHT22;2202;50.866;12.750;2022-07-23T08:58:04;25.20;55.70
4376;DHT22;2202;50.866;12.750;2022-07-23T09:00:31;25.10;52.70
4376;DHT22;2202;50.866;12.750;2022-07-23T09:02:58;24.00;55.10
4376;DHT22;2202;50.866;12.750;2022-07-23T09:05:25;23.80;56.70
4376;DHT22;2202;50.866;12.750;2022-07-23T09:08:11;24.10;55.50
4376;DHT22;2202;50.866;12.750;2022-07-23T09:10:46;24.00;53.90
4376;DHT22;2202;50.866;12.750;2022-07-23T09:13:24;23.80;56.90
4376;DHT22;2202;50.866;12.750;2022-07-23T09:15:54;23.50;59.00
4376;DHT22;2202;50.866;12.750;2022-07-23T09:18:32;23.30;60.80
4376;DHT22;2202;50.866;12.750;2022-07-23T09:21:11;23.40;59.80
4376;DHT22;2202;50.866;12.750;2022-07-23T09:23:42;23.60;60.10
4376;DHT22;2202;50.866;12.750;2022-07-23T09:26:34;23.80;60.40
4376;DHT22;2202;50.866;12.750;2022-07-23T09:29:04;24.10;57.60
4376;DHT22;2202;50.866;12.750;2022-07-23T09:31:34;23.40;59.00
4376;DHT22;2202;50.866;12.750;2022-07-23T09:34:09;23.10;62.20
4376;DHT22;2202;50.866;12.750;2022-07-23T09:36:37;23.20;62.20
4376;DHT22;2202;50.866;12.750;2022-07-23T09:39:06;23.40;61.80
4376;DHT22;2202;50.866;12.750;2022-07-23T09:41:42;23.20;63.60
4376;DHT22;2202;50.866;12.750;2022-07-23T09:44:12;23.40;60.10
4376;DHT22;2202;50.866;12.750;2022-07-23T09:46:39;22.50;61.60
4376;DHT22;2202;50.866;12.750;2022-07-23T09:49:14;22.90;60.20
4376;DHT22;2202;50.866;12.750;2022-07-23T09:51:48;23.30;61.00
4376;DHT22;2202;50.866;12.750;2022-07-23T09:54:31;23.80;57.40
4376;DHT22;2202;50.866;12.750;2022-07-23T09:57:00;23.70;57.60
4376;DHT22;2202;50.866;12.750;2022-07-23T09:59:31;22.80;61.60
4376;DHT22;2202;50.866;12.750;2022-07-23T10:01:59;22.80;62.80
4376;DHT22;2202;50.866;12.750;2022-07-23T10:04:28;23.00;63.00
4376;DHT22;2202;50.866;12.750;2022-07-23T10:06:57;23.30;61.80
4376;DHT22;2202;50.866;12.750;2022-07-23T10:09:28;23.40;60.20
4376;DHT22;2202;50.866;12.750;2022-07-23T10:11:57;23.50;58.00
4376;DHT22;2202;50.866;12.750;2022-07-23T10:14:28;23.10;60.20
4376;DHT22;2202;50.866;12.750;2022-07-23T10:16:57;22.90;61.00
4376;DHT22;2202;50.866;12.750;2022-07-23T10:19:24;22.90;62.40
4376;DHT22;2202;50.866;12.750;2022-07-23T10:21:54;23.00;60.40
4376;DHT22;2202;50.866;12.750;2022-07-23T10:24:36;22.90;62.00
4376;DHT22;2202;50.866;12.750;2022-07-23T10:27:19;22.30;63.60
4376;DHT22;2202;50.866;12.750;2022-07-23T10:29:52;21.90;66.00
4376;DHT22;2202;50.866;12.750;2022-07-23T10:32:30;21.50;67.60
4376;DHT22;2202;50.866;12.750;2022-07-23T10:35:07;21.50;69.80
4376;DHT22;2202;50.866;12.750;2022-07-23T10:37:38;21.50;70.40
4376;DHT22;2202;50.866;12.750;2022-07-23T10:40:12;21.10;72.00
4376;DHT22;2202;50.866;12.750;2022-07-23T10:42:39;20.80;77.20
4376;DHT22;2202;50.866;12.750;2022-07-23T10:45:25;20.80;76.40
4376;DHT22;2202;50.866;12.750;2022-07-23T10:47:52;20.70;76.40
4376;DHT22;2202;50.866;12.750;2022-07-23T10:50:22;20.70;78.80
4376;DHT22;2202;50.866;12.750;2022-07-23T10:53:15;20.70;77.40
4376;DHT22;2202;50.866;12.750;2022-07-23T10:55:46;20.50;78.80
4376;DHT22;2202;50.866;12.750;2022-07-23T10:58:18;20.40;79.60
4376;DHT22;2202;50.866;12.750;2022-07-23T11:00:45;20.20;80.80
4376;DHT22;2202;50.866;12.750;2022-07-23T11:03:33;20.20;81.40
4376;DHT22;2202;50.866;12.750;2022-07-23T11:06:02;20.20;81.80
4376;DHT22;2202;50.866;12.750;2022-07-23T11:08:29;20.40;81.00
4376;DHT22;2202;50.866;12.750;2022-07-23T11:11:09;20.50;78.00
4376;DHT22;2202;50.866;12.750;2022-07-23T11:13:44;20.20;80.20
4376;DHT22;2202;50.866;12.750;2022-07-23T11:16:23;20.20;81.80
4376;DHT22;2202;50.866;12.750;2022-07-23T11:19:05;20.20;83.40
4376;DHT22;2202;50.866;12.750;2022-07-23T11:21:46;19.90;83.80
4376;DHT22;2202;50.866;12.750;2022-07-23T11:24:16;20.00;86.40
4376;DHT22;2202;50.866;12.750;2022-07-23T11:26:48;20.20;81.20
4376;DHT22;2202;50.866;12.750;2022-07-23T11:29:43;20.40;83.40
4376;DHT22;2202;50.866;12.750;2022-07-23T11:32:28;20.50;82.40
4376;DHT22;2202;50.866;12.750;2022-07-23T11:34:55;21.10;81.00
4376;DHT22;2202;50.866;12.750;2022-07-23T11:37:37;21.20;77.40
4376;DHT22;2202;50.866;12.750;2022-07-23T11:40:08;21.40;73.60
4376;DHT22;2202;50.866;12.750;2022-07-23T11:42:38;21.40;72.40
4376;DHT22;2202;50.866;12.750;2022-07-23T11:45:07;21.20;75.40
4376;DHT22;2202;50.866;12.750;2022-07-23T11:47:34;21.20;76.00
4376;DHT22;2202;50.866;12.750;2022-07-23T11:50:04;21.40;75.60
4376;DHT22;2202;50.866;12.750;2022-07-23T11:52:32;21.50;74.60
4376;DHT22;2202;50.866;12.750;2022-07-23T11:55:03;21.70;73.20
4376;DHT22;2202;50.866;12.750;2022-07-23T11:57:32;21.70;71.80
4376;DHT22;2202;50.866;12.750;2022-07-23T12:00:05;21.60;75.60
4376;DHT22;2202;50.866;12.750;2022-07-23T12:02:33;21.60;75.00
4376;DHT22;2202;50.866;12.750;2022-07-23T12:05:00;22.00;75.60
4376;DHT22;2202;50.866;12.750;2022-07-23T12:07:31;21.80;69.60
4376;DHT22;2202;50.866;12.750;2022-07-23T12:10:00;21.80;71.00
4376;DHT22;2202;50.866;12.750;2022-07-23T12:12:27;22.20;72.40
4376;DHT22;2202;50.866;12.750;2022-07-23T12:15:03;22.60;67.40
4376;DHT22;2202;50.866;12.750;2022-07-23T12:17:33;22.40;69.40
4376;DHT22;2202;50.866;12.750;2022-07-23T12:20:03;22.50;70.00
4376;DHT22;2202;50.866;12.750;2022-07-23T12:22:36;22.60;68.60
4376;DHT22;2202;50.866;12.750;2022-07-23T12:25:05;23.00;70.20
4376;DHT22;2202;50.866;12.750;2022-07-23T12:27:33;23.20;65.20
4376;DHT22;2202;50.866;12.750;2022-07-23T12:32:55;23.30;63.00
4376;DHT22;2202;50.866;12.750;2022-07-23T12:35:29;23.20;64.00
4376;DHT22;2202;50.866;12.750;2022-07-23T12:38:00;22.90;67.20
4376;DHT22;2202;50.866;12.750;2022-07-23T12:40:29;22.90;65.20
4376;DHT22;2202;50.866;12.750;2022-07-23T12:43:00;22.70;69.00
4376;DHT22;2202;50.866;12.750;2022-07-23T12:45:28;23.00;67.60
4376;DHT22;2202;50.866;12.750;2022-07-23T12:48:02;22.80;67.00
4376;DHT22;2202;50.866;12.750;2022-07-23T12:50:50;22.90;68.00
4376;DHT22;2202;50.866;12.750;2022-07-23T12:53:20;23.00;66.20
4376;DHT22;2202;50.866;12.750;2022-07-23T12:55:48;22.90;65.20
4376;DHT22;2202;50.866;12.750;2022-07-23T12:58:16;23.10;64.60
4376;DHT22;2202;50.866;12.750;2022-07-23T13:01:02;23.00;65.00
4376;DHT22;2202;50.866;12.750;2022-07-23T13:03:36;22.70;65.00
4376;DHT22;2202;50.866;12.750;2022-07-23T13:06:05;22.70;65.80
4376;DHT22;2202;50.866;12.750;2022-07-23T13:08:34;22.70;65.80
4376;DHT22;2202;50.866;12.750;2022-07-23T13:11:01;22.40;67.00
4376;DHT22;2202;50.866;12.750;2022-07-23T13:13:29;22.50;67.80
4376;DHT22;2202;50.866;12.750;2022-07-23T13:15:57;22.90;69.20
4376;DHT22;2202;50.866;12.750;2022-07-23T13:18:25;23.20;63.20
4376;DHT22;2202;50.866;12.750;2022-07-23T13:20:55;23.10;63.00
4376;DHT22;2202;50.866;12.750;2022-07-23T13:23:22;23.00;66.20
4376;DHT22;2202;50.866;12.750;2022-07-23T13:25:49;23.20;66.40
4376;DHT22;2202;50.866;12.750;2022-07-23T13:28:17;23.30;63.80
4376;DHT22;2202;50.866;12.750;2022-07-23T13:30:44;23.10;63.80
4376;DHT22;2202;50.866;12.750;2022-07-23T13:33:13;22.90;65.60
4376;DHT22;2202;50.866;12.750;2022-07-23T13:35:40;23.20;62.40
4376;DHT22;2202;50.866;12.750;2022-07-23T13:38:08;23.40;64.20
4376;DHT22;2202;50.866;12.750;2022-07-23T13:40:36;23.20;63.20
4376;DHT22;2202;50.866;12.750;2022-07-23T13:43:06;23.10;64.40
4376;DHT22;2202;50.866;12.750;2022-07-23T13:45:33;23.00;63.20
4376;DHT22;2202;50.866;12.750;2022-07-23T13:48:01;23.00;64.80
4376;DHT22;2202;50.866;12.750;2022-07-23T13:50:28;22.90;64.20
4376;DHT22;2202;50.866;12.750;2022-07-23T13:52:55;23.00;64.80
4376;DHT22;2202;50.866;12.750;2022-07-23T13:55:23;22.90;65.20
4376;DHT22;2202;50.866;12.750;2022-07-23T13:57:50;22.90;64.40
4376;DHT22;2202;50.866;12.750;2022-07-23T14:00:17;22.80;64.40
4376;DHT22;2202;50.866;12.750;2022-07-23T14:02:44;22.80;66.00
4376;DHT22;2202;50.866;12.750;2022-07-23T14:05:11;22.90;66.20
4376;DHT22;2202;50.866;12.750;2022-07-23T14:07:39;23.10;63.80
4376;DHT22;2202;50.866;12.750;2022-07-23T14:10:09;22.90;63.00
4376;DHT22;2202;50.866;12.750;2022-07-23T14:12:37;23.10;67.20
4376;DHT22;2202;50.866;12.750;2022-07-23T14:15:06;23.60;63.60
4376;DHT22;2202;50.866;12.750;2022-07-23T14:17:34;23.60;60.10
4376;DHT22;2202;50.866;12.750;2022-07-23T14:20:01;23.70;60.80
4376;DHT22;2202;50.866;12.750;2022-07-23T14:22:28;23.90;61.40
4376;DHT22;2202;50.866;12.750;2022-07-23T14:24:54;24.50;58.70
4376;DHT22;2202;50.866;12.750;2022-07-23T14:27:23;24.80;57.80
4376;DHT22;2202;50.866;12.750;2022-07-23T14:29:51;24.90;57.10
4376;DHT22;2202;50.866;12.750;2022-07-23T14:32:18;24.90;58.90
4376;DHT22;2202;50.866;12.750;2022-07-23T14:34:45;24.40;57.40
4376;DHT22;2202;50.866;12.750;2022-07-23T14:37:12;23.90;59.80
4376;DHT22;2202;50.866;12.750;2022-07-23T14:39:39;23.70;62.40
4376;DHT22;2202;50.866;12.750;2022-07-23T14:42:07;23.70;60.20
4376;DHT22;2202;50.866;12.750;2022-07-23T14:44:34;23.70;61.20
4376;DHT22;2202;50.866;12.750;2022-07-23T14:47:04;23.90;61.20
4376;DHT22;2202;50.866;12.750;2022-07-23T14:49:32;23.80;60.10
4376;DHT22;2202;50.866;12.750;2022-07-23T14:51:59;23.90;60.60
4376;DHT22;2202;50.866;12.750;2022-07-23T14:54:27;23.80;59.40
4376;DHT22;2202;50.866;12.750;2022-07-23T14:56:55;23.50;61.00
4376;DHT22;2202;50.866;12.750;2022-07-23T14:59:23;23.60;61.60
4376;DHT22;2202;50.866;12.750;2022-07-23T15:01:50;23.50;61.20
4376;DHT22;2202;50.866;12.750;2022-07-23T15:04:19;23.40;63.20
4376;DHT22;2202;50.866;12.750;2022-07-23T15:06:45;23.30;62.80
4376;DHT22;2202;50.866;12.750;2022-07-23T15:09:12;23.10;61.80
4376;DHT22;2202;50.866;12.750;2022-07-23T15:11:41;22.80;64.00
4376;DHT22;2202;50.866;12.750;2022-07-23T15:14:09;22.80;65.80
4376;DHT22;2202;50.866;12.750;2022-07-23T15:16:36;22.70;65.40
4376;DHT22;2202;50.866;12.750;2022-07-23T15:19:04;22.80;66.20
4376;DHT22;2202;50.866;12.750;2022-07-23T15:21:32;23.00;64.80
4376;DHT22;2202;50.866;12.750;2022-07-23T15:23:59;23.00;63.80
4376;DHT22;2202;50.866;12.750;2022-07-23T15:26:26;22.50;65.60
4376;DHT22;2202;50.866;12.750;2022-07-23T15:28:54;22.60;65.40
4376;DHT22;2202;50.866;12.750;2022-07-23T15:31:21;22.60;66.40
4376;DHT22;2202;50.866;12.750;2022-07-23T15:33:48;22.80;66.00
4376;DHT22;2202;50.866;12.750;2022-07-23T15:36:17;23.10;64.00
4376;DHT22;2202;50.866;12.750;2022-07-23T15:38:46;23.10;62.00
4376;DHT22;2202;50.866;12.750;2022-07-23T15:41:13;23.30;62.80
4376;DHT22;2202;50.866;12.750;2022-07-23T15:43:40;23.10;63.80
4376;DHT22;2202;50.866;12.750;2022-07-23T15:46:07;23.50;62.80
4376;DHT22;2202;50.866;12.750;2022-07-23T15:48:35;23.90;60.60
4376;DHT22;2202;50.866;12.750;2022-07-23T15:51:03;23.90;57.40
4376;DHT22;2202;50.866;12.750;2022-07-23T15:53:30;23.50;60.60
4376;DHT22;2202;50.866;12.750;2022-07-23T15:55:58;23.50;59.60